Time;durP1;ratioP1;P1;durP2;ratioP2;P2;SDS_P1;SDS_P2;PMS_P1;PMS_P2;Temp;Humidity;BMP_temperature;BMP_pressure;BME280_temperature;BME280_humidity;BME280_pressure;Samples;Min_cycle;Max_cycle;Signal;HPM_P1;HPM_P2
2024/02/12 00:01:55;;;;;;;7.37;5.93;;;9.60;1.00;;;;;;5032692;28;20523;-83
2024/02/12 00:04:21;;;;;;;5.47;4.93;;;9.60;1.00;;;;;;5027376;28;20183;-84
2024/02/12 00:06:47;;;;;;;7.23;5.93;;;9.70;1.00;;;;;;5019778;28;20529;-82
2024/02/12 00:09:13;;;;;;;8.50;6.20;;;9.70;1.00;;;;;;5025136;28;21059;-84
2024/02/12 00:11:41;;;;;;;13.17;6.77;;;9.70;1.00;;;;;;5020319;28;20515;-81
2024/02/12 00:14:07;;;;;;;13.30;6.87;;;9.70;1.00;;;;;;5006266;28;20194;-84
2024/02/12 00:16:32;;;;;;;9.57;6.80;;;9.70;1.00;;;;;;5022539;28;20516;-84
2024/02/12 00:18:58;;;;;;;9.57;7.80;;;9.70;1.00;;;;;;5022439;28;20216;-82
2024/02/12 00:21:23;;;;;;;9.93;7.87;;;9.80;1.00;;;;;;5026059;28;20225;-84
2024/02/12 00:23:49;;;;;;;13.20;8.47;;;9.70;1.00;;;;;;5024738;28;20221;-84
2024/02/12 00:26:15;;;;;;;9.60;6.90;;;9.70;1.00;;;;;;5013937;28;20187;-84
2024/02/12 00:28:42;;;;;;;11.30;8.27;;;9.80;1.00;;;;;;5019856;28;20297;-84
2024/02/12 00:31:12;;;;;;;15.63;9.53;;;9.70;1.00;;;;;;5008272;28;20447;-83
2024/02/12 00:33:38;;;;;;;13.77;9.37;;;9.80;1.00;;;;;;5027021;28;20847;-83
2024/02/12 00:36:03;;;;;;;15.87;9.97;;;9.70;1.00;;;;;;5027595;28;20459;-83
2024/02/12 00:38:30;;;;;;;14.07;9.47;;;9.70;1.00;;;;;;5008439;28;20206;-84
2024/02/12 00:40:57;;;;;;;13.00;10.57;;;9.70;1.00;;;;;;5013695;28;20974;-83
2024/02/12 00:43:22;;;;;;;16.03;11.00;;;9.70;1.00;;;;;;5018254;28;20434;-83
2024/02/12 00:45:48;;;;;;;18.10;11.90;;;9.70;1.00;;;;;;5014438;28;20974;-84
2024/02/12 00:48:14;;;;;;;15.30;11.10;;;9.70;1.00;;;;;;5020697;28;20579;-83
2024/02/12 00:50:40;;;;;;;17.13;10.73;;;9.70;1.00;;;;;;5016824;28;20183;-84
2024/02/12 00:53:05;;;;;;;18.30;12.17;;;9.70;1.00;;;;;;5016598;28;20429;-83
2024/02/12 00:55:31;;;;;;;16.43;12.17;;;9.70;1.00;;;;;;5020323;28;20198;-83
2024/02/12 00:57:57;;;;;;;19.03;12.70;;;9.70;1.00;;;;;;5016985;28;20542;-83
2024/02/12 01:00:23;;;;;;;19.80;12.23;;;9.70;1.00;;;;;;5017036;28;20258;-83
2024/02/12 01:02:49;;;;;;;20.10;12.40;;;9.70;1.00;;;;;;5015740;28;20867;-83
2024/02/12 01:05:17;;;;;;;20.03;13.70;;;9.70;1.00;;;;;;5017620;28;22059;-83
2024/02/12 01:07:43;;;;;;;20.00;13.70;;;9.70;1.00;;;;;;5015151;28;20210;-83
2024/02/12 01:10:09;;;;;;;18.53;14.37;;;9.70;1.00;;;;;;5014845;28;20465;-83
2024/02/12 01:12:35;;;;;;;24.20;15.20;;;9.70;1.00;;;;;;5014342;28;20438;-83
2024/02/12 01:15:01;;;;;;;22.23;14.67;;;9.70;1.00;;;;;;5022404;28;20433;-83
2024/02/12 01:17:29;;;;;;;22.80;14.97;;;9.70;1.00;;;;;;4999684;28;20592;-83
2024/02/12 01:19:55;;;;;;;21.30;13.67;;;9.70;1.00;;;;;;4998560;28;20183;-83
2024/02/12 01:22:20;;;;;;;20.73;14.90;;;9.70;1.00;;;;;;5015014;28;20445;-84
2024/02/12 01:24:46;;;;;;;19.23;14.53;;;9.70;1.00;;;;;;5020067;28;20448;-84
2024/02/12 01:27:13;;;;;;;23.27;15.73;;;9.70;1.00;;;;;;5026553;28;20194;-82
2024/02/12 01:29:42;;;;;;;20.80;14.80;;;9.60;1.00;;;;;;5008325;28;20268;-83
2024/02/12 01:32:09;;;;;;;22.83;13.47;;;9.60;1.00;;;;;;5024483;28;20438;-83
2024/02/12 01:34:35;;;;;;;20.20;14.83;;;9.60;1.00;;;;;;5023308;28;20433;-84
2024/02/12 01:37:01;;;;;;;22.83;15.67;;;9.60;1.00;;;;;;5016243;28;20441;-83
2024/02/12 01:39:27;;;;;;;28.60;15.37;;;9.60;1.00;;;;;;5018587;28;20461;-83
2024/02/12 01:41:53;;;;;;;26.57;15.90;;;9.50;1.00;;;;;;5016347;28;20453;-83
2024/02/12 01:44:18;;;;;;;25.90;15.13;;;9.50;1.00;;;;;;5014517;28;20252;-83
2024/02/12 01:46:49;;;;;;;26.73;16.70;;;9.50;1.00;;;;;;5015320;28;20186;-84
2024/02/12 01:49:21;;;;;;;25.97;16.77;;;9.50;1.00;;;;;;5015990;28;20264;-83
2024/02/12 01:51:48;;;;;;;26.80;18.60;;;9.50;1.00;;;;;;5007186;28;20496;-83
2024/02/12 01:54:15;;;;;;;26.63;17.33;;;9.50;1.00;;;;;;5016911;28;20433;-83
2024/02/12 01:56:42;;;;;;;33.10;19.70;;;9.50;1.00;;;;;;5020200;28;20428;-82
2024/02/12 01:59:18;;;;;;;31.97;21.70;;;9.50;1.00;;;;;;5024565;28;20464;-83
2024/02/12 02:01:47;;;;;;;33.53;21.70;;;9.50;1.00;;;;;;5016158;28;20444;-83
2024/02/12 02:04:13;;;;;;;33.70;21.10;;;9.50;1.00;;;;;;5022991;28;20980;-84
2024/02/12 02:06:39;;;;;;;29.07;20.57;;;9.50;1.00;;;;;;5001935;28;20469;-84
2024/02/12 02:09:07;;;;;;;31.93;19.77;;;9.50;1.00;;;;;;5012865;28;20221;-83
2024/02/12 02:11:33;;;;;;;33.67;20.53;;;9.50;1.00;;;;;;5023517;28;20524;-84
2024/02/12 02:13:59;;;;;;;32.07;20.30;;;9.50;1.00;;;;;;5021100;28;20852;-84
2024/02/12 02:16:24;;;;;;;34.50;21.20;;;9.50;1.00;;;;;;5016974;28;20629;-84
2024/02/12 02:18:52;;;;;;;41.00;23.63;;;9.50;1.00;;;;;;5019820;28;20473;-83
2024/02/12 02:21:18;;;;;;;32.93;20.40;;;9.50;1.00;;;;;;5017580;28;20262;-84
2024/02/12 02:23:43;;;;;;;38.67;23.27;;;9.50;1.00;;;;;;5013393;28;20547;-84
2024/02/12 02:26:09;;;;;;;40.60;23.13;;;9.60;1.00;;;;;;5001973;28;20445;-83
2024/02/12 02:28:35;;;;;;;39.67;24.53;;;9.60;1.00;;;;;;5031418;28;20268;-83
2024/02/12 02:31:00;;;;;;;37.87;21.27;;;9.60;1.00;;;;;;5006746;28;20187;-85
2024/02/12 02:33:26;;;;;;;34.30;22.00;;;9.60;1.00;;;;;;5017645;28;20186;-83
2024/02/12 02:35:52;;;;;;;35.30;22.10;;;9.60;1.00;;;;;;5017362;28;20183;-84
2024/02/12 02:38:18;;;;;;;34.57;22.07;;;9.60;1.00;;;;;;5013995;28;20202;-83
2024/02/12 02:40:43;;;;;;;34.90;21.03;;;9.50;1.00;;;;;;5012765;28;20442;-84
2024/02/12 02:43:09;;;;;;;33.90;21.10;;;9.50;1.00;;;;;;4999152;28;21450;-83
2024/02/12 02:45:35;;;;;;;40.33;22.00;;;9.40;1.00;;;;;;5020122;28;20178;-83
2024/02/12 02:48:02;;;;;;;38.57;22.07;;;9.40;1.00;;;;;;5002245;28;20449;-84
2024/02/12 02:50:29;;;;;;;34.23;21.10;;;9.40;1.00;;;;;;5015109;28;20479;-85
2024/02/12 02:52:55;;;;;;;36.97;21.80;;;9.40;1.00;;;;;;5020553;28;20460;-83
2024/02/12 02:55:22;;;;;;;37.47;20.80;;;9.40;1.00;;;;;;5035815;28;20983;-85
2024/02/12 02:57:48;;;;;;;34.83;21.83;;;9.40;1.00;;;;;;5022674;28;20496;-84
2024/02/12 03:00:15;;;;;;;36.10;22.10;;;9.40;1.00;;;;;;5012861;28;20453;-84
2024/02/12 03:02:44;;;;;;;40.60;22.43;;;9.40;1.00;;;;;;5019300;28;20198;-84
2024/02/12 03:05:14;;;;;;;40.10;22.13;;;9.40;1.00;;;;;;5036163;28;20445;-84
2024/02/12 03:07:45;;;;;;;37.23;23.37;;;9.40;1.00;;;;;;5026554;28;20472;-84
2024/02/12 03:10:11;;;;;;;36.33;21.10;;;9.40;1.00;;;;;;5003615;28;20557;-85
2024/02/12 03:12:38;;;;;;;35.10;23.07;;;9.40;1.00;;;;;;5012217;28;20852;-85
2024/02/12 03:15:11;;;;;;;48.83;22.53;;;9.40;1.00;;;;;;5020948;28;20425;-84
2024/02/12 03:17:43;;;;;;;40.57;25.27;;;9.40;1.00;;;;;;5016736;28;20829;-85
2024/02/12 03:20:11;;;;;;;43.27;24.47;;;9.50;1.00;;;;;;5032031;28;20472;-85
2024/02/12 03:22:40;;;;;;;42.90;25.10;;;9.50;1.00;;;;;;5020657;28;20434;-84
2024/02/12 03:25:10;;;;;;;38.43;24.73;;;9.50;1.00;;;;;;5006032;28;20815;-84
2024/02/12 03:27:41;;;;;;;32.77;23.67;;;9.50;1.00;;;;;;5035051;28;20459;-84
2024/02/12 03:30:09;;;;;;;33.30;21.60;;;9.40;1.00;;;;;;5022595;28;20557;-85
2024/02/12 03:32:36;;;;;;;39.97;24.50;;;9.50;1.00;;;;;;5020371;28;20829;-84
2024/02/12 03:35:02;;;;;;;39.33;23.30;;;9.50;1.00;;;;;;5024332;28;20421;-84
2024/02/12 03:37:28;;;;;;;44.73;23.97;;;9.50;1.00;;;;;;5021141;28;20582;-85
2024/02/12 03:39:53;;;;;;;34.93;22.57;;;9.50;1.00;;;;;;5034138;28;20429;-83
2024/02/12 03:42:26;;;;;;;39.60;22.17;;;9.50;1.00;;;;;;5027507;28;20609;-83
2024/02/12 03:44:52;;;;;;;34.30;22.90;;;9.50;1.00;;;;;;5004020;28;20194;-83
2024/02/12 03:47:18;;;;;;;33.50;20.80;;;9.50;1.00;;;;;;5018167;28;20926;-83
2024/02/12 04:00:44;;;;;;;37.97;22.17;;;9.50;1.00;;;;;;5021051;28;20453;-83
2024/02/12 04:03:10;;;;;;;42.60;22.13;;;9.50;1.00;;;;;;5019953;28;20472;-83
2024/02/12 04:05:36;;;;;;;40.40;21.47;;;9.40;1.00;;;;;;5006554;28;20445;-84
2024/02/12 04:08:09;;;;;;;32.33;22.17;;;9.40;1.00;;;;;;5026273;28;20514;-84
2024/02/12 04:10:35;;;;;;;40.27;23.70;;;9.40;1.00;;;;;;5028428;28;20206;-83
2024/02/12 04:13:03;;;;;;;35.27;22.40;;;9.40;1.00;;;;;;5001812;28;20531;-84
2024/02/12 04:15:29;;;;;;;35.87;21.77;;;9.40;1.00;;;;;;5018087;28;20664;-83
2024/02/12 04:17:55;;;;;;;33.70;20.10;;;9.40;1.00;;;;;;5020800;28;20457;-84
2024/02/12 04:20:22;;;;;;;29.37;20.57;;;9.40;1.00;;;;;;5029819;28;20190;-84
2024/02/12 04:22:48;;;;;;;41.17;22.30;;;9.40;1.00;;;;;;5016781;28;20879;-83
2024/02/12 04:25:14;;;;;;;40.93;23.03;;;9.40;1.00;;;;;;5030854;28;20445;-83
2024/02/12 04:27:41;;;;;;;34.87;23.20;;;9.50;1.00;;;;;;5025456;28;20465;-84
2024/02/12 04:30:10;;;;;;;43.23;23.13;;;9.50;1.00;;;;;;5012042;28;20316;-84
2024/02/12 04:32:36;;;;;;;35.63;23.10;;;9.50;1.00;;;;;;5028351;28;20527;-84
2024/02/12 04:35:03;;;;;;;37.00;23.40;;;9.50;1.00;;;;;;5003678;28;21061;-85
2024/02/12 04:37:30;;;;;;;45.63;23.37;;;9.50;1.00;;;;;;5021770;28;20211;-83
2024/02/12 04:39:55;;;;;;;43.90;26.07;;;9.50;1.00;;;;;;5019189;28;20442;-85
2024/02/12 04:42:21;;;;;;;44.03;26.83;;;9.50;1.00;;;;;;5016593;28;20441;-85
2024/02/12 04:44:47;;;;;;;39.40;25.23;;;9.50;1.00;;;;;;5020554;28;20179;-84
2024/02/12 04:47:12;;;;;;;44.13;25.43;;;9.50;1.00;;;;;;5019246;28;20186;-85
2024/02/12 04:49:38;;;;;;;38.77;24.27;;;9.50;1.00;;;;;;5028126;28;20209;-84
2024/02/12 04:52:05;;;;;;;36.53;21.63;;;9.40;1.00;;;;;;5010213;28;20182;-84
2024/02/12 04:54:33;;;;;;;41.50;22.53;;;9.40;1.00;;;;;;5025464;28;20747;-84
2024/02/12 04:56:59;;;;;;;37.40;21.13;;;9.40;1.00;;;;;;5028671;28;20457;-85
2024/02/12 04:59:25;;;;;;;41.00;20.60;;;9.40;1.00;;;;;;5035020;28;22007;-84
2024/02/12 05:01:51;;;;;;;40.00;21.83;;;9.40;1.00;;;;;;5025341;28;20480;-84
2024/02/12 05:04:19;;;;;;;37.77;22.97;;;9.30;1.00;;;;;;5021648;28;20452;-83
2024/02/12 05:06:45;;;;;;;43.10;25.20;;;9.30;1.00;;;;;;5021196;28;20183;-85
2024/02/12 05:09:11;;;;;;;39.67;22.23;;;9.30;1.00;;;;;;5025502;28;20476;-85
2024/02/12 05:11:37;;;;;;;39.47;23.87;;;9.30;1.00;;;;;;5015231;28;20532;-83
2024/02/12 05:14:03;;;;;;;41.47;20.93;;;9.20;1.00;;;;;;5016329;28;20171;-83
2024/02/12 05:16:35;;;;;;;33.03;21.50;;;9.20;1.00;;;;;;5024888;28;20463;-83
2024/02/12 05:24:30;;;;;;;40.20;20.90;;;9.10;1.00;;;;;;5015867;28;20488;-83
2024/02/12 05:26:58;;;;;;;33.00;20.83;;;9.10;1.00;;;;;;5010432;28;21199;-83
2024/02/12 05:29:26;;;;;;;36.00;20.23;;;9.10;1.00;;;;;;5019929;28;20923;-83
2024/02/12 05:31:53;;;;;;;35.60;21.97;;;9.10;1.00;;;;;;5023085;28;20880;-83
2024/02/12 05:34:20;;;;;;;34.67;21.10;;;9.00;1.00;;;;;;5018969;28;20437;-83
2024/02/12 05:36:47;;;;;;;41.47;21.70;;;9.00;1.00;;;;;;5017788;28;20437;-83
2024/02/12 05:39:13;;;;;;;41.40;22.37;;;9.00;1.00;;;;;;5023310;28;20461;-83
2024/02/12 05:41:40;;;;;;;38.80;22.53;;;9.00;1.00;;;;;;5023165;28;20566;-84
2024/02/12 05:44:05;;;;;;;36.33;20.50;;;9.00;1.00;;;;;;5002813;28;20440;-83
2024/02/12 05:46:31;;;;;;;33.13;21.40;;;9.00;1.00;;;;;;5015015;28;20443;-83
2024/02/12 05:48:59;;;;;;;46.67;22.57;;;9.00;1.00;;;;;;5018465;28;20301;-84
2024/02/12 05:51:26;;;;;;;37.67;22.10;;;9.00;1.00;;;;;;5002814;28;20178;-83
2024/02/12 05:53:51;;;;;;;31.40;20.23;;;9.00;1.00;;;;;;5027895;28;20483;-84
2024/02/12 05:56:18;;;;;;;37.77;21.43;;;8.90;1.00;;;;;;5024665;28;20437;-83
2024/02/12 05:58:43;;;;;;;32.73;19.07;;;8.90;1.00;;;;;;5016177;28;20850;-84
2024/02/12 06:01:10;;;;;;;33.13;19.73;;;8.90;1.00;;;;;;5026357;28;20444;-84
2024/02/12 06:03:36;;;;;;;34.93;20.20;;;8.90;1.00;;;;;;5026429;28;20547;-85
2024/02/12 06:06:02;;;;;;;34.73;18.67;;;8.80;1.00;;;;;;5003055;28;20433;-83
2024/02/12 06:08:28;;;;;;;34.70;19.10;;;8.80;1.00;;;;;;5007978;28;20203;-83
2024/02/12 06:10:54;;;;;;;32.93;19.70;;;8.80;1.00;;;;;;5026521;28;20807;-83
2024/02/12 06:13:19;;;;;;;30.80;18.00;;;8.80;1.00;;;;;;5027770;28;20260;-84
2024/02/12 06:15:45;;;;;;;29.10;18.20;;;8.80;1.00;;;;;;5031620;28;20577;-83
2024/02/12 06:18:11;;;;;;;33.10;18.20;;;8.80;1.00;;;;;;5023982;28;20215;-84
2024/02/12 06:20:36;;;;;;;39.60;18.77;;;8.80;1.00;;;;;;5023714;28;20216;-82
2024/02/12 06:23:02;;;;;;;29.40;20.13;;;8.80;1.00;;;;;;5024055;28;20269;-83
2024/02/12 06:25:28;;;;;;;26.03;16.83;;;8.80;1.00;;;;;;5024307;28;20179;-84
2024/02/12 06:27:53;;;;;;;28.00;17.90;;;8.80;1.00;;;;;;5015865;28;20877;-83
2024/02/12 06:30:19;;;;;;;31.43;17.70;;;8.80;1.00;;;;;;5030454;28;20186;-84
2024/02/12 06:32:46;;;;;;;32.37;17.90;;;8.80;1.00;;;;;;5030109;28;20186;-83
2024/02/12 06:35:11;;;;;;;36.67;19.77;;;8.80;1.00;;;;;;5010306;28;20248;-84
2024/02/12 06:37:38;;;;;;;29.60;19.03;;;8.80;1.00;;;;;;5025812;28;20488;-84
2024/02/12 06:40:06;;;;;;;30.27;18.70;;;8.80;1.00;;;;;;5013250;28;20203;-83
2024/02/12 06:42:32;;;;;;;27.00;17.37;;;8.80;1.00;;;;;;5021797;28;20572;-83
2024/02/12 06:44:57;;;;;;;30.07;17.00;;;8.80;1.00;;;;;;5016911;28;20887;-83
2024/02/12 06:47:23;;;;;;;29.03;17.07;;;8.70;1.00;;;;;;5027878;28;20202;-83
2024/02/12 06:49:49;;;;;;;37.10;18.93;;;8.80;1.00;;;;;;5028526;28;20640;-82
2024/02/12 06:52:14;;;;;;;31.40;19.73;;;8.80;1.00;;;;;;5032156;28;20201;-83
2024/02/12 06:54:40;;;;;;;29.87;17.20;;;8.80;1.00;;;;;;5004053;28;20190;-83
2024/02/12 06:57:05;;;;;;;33.20;18.93;;;8.80;1.00;;;;;;5029213;28;20238;-83
2024/02/12 06:59:31;;;;;;;31.73;18.50;;;8.80;1.00;;;;;;5020750;28;20318;-83
2024/02/12 07:01:57;;;;;;;34.20;19.40;;;8.80;1.00;;;;;;5028466;28;20191;-83
2024/02/12 07:04:23;;;;;;;33.50;17.70;;;8.90;1.00;;;;;;5022410;28;20179;-83
2024/02/12 07:06:48;;;;;;;36.13;18.90;;;9.00;1.00;;;;;;5030443;28;20546;-83
2024/02/12 07:09:14;;;;;;;31.73;18.40;;;9.10;1.00;;;;;;5039266;28;20202;-82
2024/02/12 07:11:39;;;;;;;27.37;18.13;;;9.10;1.00;;;;;;5036068;28;20205;-82
2024/02/12 07:14:05;;;;;;;33.47;18.90;;;9.20;1.00;;;;;;5032856;28;20178;-83
2024/02/12 07:16:31;;;;;;;32.30;20.90;;;9.20;1.00;;;;;;5034890;28;20711;-82
2024/02/12 07:18:57;;;;;;;36.53;19.03;;;9.20;1.00;;;;;;5025892;28;20238;-83
2024/02/12 07:21:23;;;;;;;28.03;18.53;;;9.20;1.00;;;;;;5028819;28;20776;-83
2024/02/12 07:23:49;;;;;;;31.50;17.60;;;9.20;1.00;;;;;;5036583;28;20421;-82
2024/02/12 07:26:15;;;;;;;26.70;17.40;;;9.20;1.00;;;;;;5017738;28;20178;-83
2024/02/12 07:28:41;;;;;;;32.83;18.60;;;9.30;1.00;;;;;;5029463;28;20434;-82
2024/02/12 07:31:10;;;;;;;37.03;18.40;;;9.30;1.00;;;;;;5036100;28;20431;-83
2024/02/12 07:33:36;;;;;;;39.67;17.60;;;9.30;1.00;;;;;;5040972;28;20552;-83
2024/02/12 07:36:06;;;;;;;29.37;17.53;;;9.30;1.00;;;;;;5034462;28;20449;-83
2024/02/12 07:38:32;;;;;;;32.00;17.30;;;9.30;1.00;;;;;;5040114;28;20198;-83
2024/02/12 07:40:59;;;;;;;29.33;17.40;;;9.30;1.00;;;;;;5033409;28;20504;-82
2024/02/12 07:43:25;;;;;;;28.30;16.93;;;9.30;1.00;;;;;;5028166;28;20185;-82
2024/02/12 07:45:53;;;;;;;38.77;16.60;;;9.30;1.00;;;;;;5040237;28;20408;-83
2024/02/12 07:48:19;;;;;;;33.53;16.10;;;9.30;1.00;;;;;;5039245;28;20433;-82
2024/02/12 07:50:45;;;;;;;33.53;17.13;;;9.40;1.00;;;;;;5021088;28;20416;-79
2024/02/12 07:53:11;;;;;;;29.93;17.57;;;9.30;1.00;;;;;;5036051;28;20433;-83
2024/02/12 07:55:36;;;;;;;30.43;16.07;;;9.40;1.00;;;;;;5019691;28;20621;-83
2024/02/12 07:58:02;;;;;;;26.70;15.37;;;9.40;1.00;;;;;;5037147;28;20198;-84
2024/02/12 08:00:28;;;;;;;23.97;14.90;;;9.40;1.00;;;;;;5038034;28;20236;-83
2024/02/12 08:02:54;;;;;;;27.03;13.77;;;9.50;1.00;;;;;;5034623;28;20437;-82
2024/02/12 08:05:21;;;;;;;25.90;13.77;;;9.50;1.00;;;;;;5029182;28;20182;-84
2024/02/12 08:07:47;;;;;;;21.83;13.27;;;9.50;1.00;;;;;;5018385;28;20438;-83
2024/02/12 08:10:13;;;;;;;25.10;14.07;;;9.50;1.00;;;;;;5025788;28;20437;-83
2024/02/12 08:12:42;;;;;;;26.47;13.40;;;9.60;1.00;;;;;;5021285;28;20179;-81
2024/02/12 08:15:09;;;;;;;20.23;12.57;;;9.60;1.00;;;;;;5015870;28;20444;-82
2024/02/12 08:17:35;;;;;;;21.40;13.57;;;9.60;1.00;;;;;;5016153;28;20477;-83
2024/02/12 08:20:04;;;;;;;21.73;12.57;;;9.60;1.00;;;;;;5020365;28;21173;-83
2024/02/12 08:22:31;;;;;;;23.07;12.60;;;9.70;1.00;;;;;;5016981;28;20175;-82
2024/02/12 08:24:56;;;;;;;23.43;12.77;;;9.80;1.00;;;;;;5022777;28;21011;-83
2024/02/12 08:27:22;;;;;;;18.30;11.53;;;9.90;1.00;;;;;;5011124;28;20433;-83
2024/02/12 08:29:48;;;;;;;25.30;12.90;;;10.00;99.90;;;;;;5016366;28;20183;-83
2024/02/12 08:32:14;;;;;;;25.90;12.47;;;10.10;99.90;;;;;;5025643;28;20269;-83
2024/02/12 08:34:40;;;;;;;20.17;11.90;;;10.30;99.90;;;;;;5017154;28;20528;-83
2024/02/12 08:37:08;;;;;;;24.50;11.67;;;10.60;99.90;;;;;;5024157;28;20468;-83
2024/02/12 08:39:34;;;;;;;17.97;11.63;;;10.80;1.00;;;;;;5021890;28;20473;-84
2024/02/12 08:42:00;;;;;;;17.77;11.90;;;11.20;99.90;;;;;;4999620;28;20981;-83
2024/02/12 08:44:26;;;;;;;18.57;12.20;;;11.50;1.00;;;;;;5012579;28;20444;-84
2024/02/12 08:46:51;;;;;;;18.70;10.67;;;11.80;1.00;;;;;;5019580;28;20486;-83
2024/02/12 08:49:17;;;;;;;19.43;10.47;;;13.10;99.90;;;;;;5010738;28;20227;-83
2024/02/12 08:51:43;;;;;;;14.33;8.60;;;14.30;1.00;;;;;;5013409;28;20310;-83
2024/02/12 08:54:08;;;;;;;15.87;8.73;;;14.50;99.90;;;;;;5006752;28;20197;-84
2024/02/12 08:56:39;;;;;;;14.87;9.73;;;14.60;1.00;;;;;;5030333;28;20596;-83
2024/02/12 08:59:06;;;;;;;22.33;10.60;;;14.50;1.00;;;;;;5018002;28;20308;-83
2024/02/12 09:01:32;;;;;;;13.47;8.70;;;14.10;1.00;;;;;;5032181;28;20531;-83
2024/02/12 09:03:58;;;;;;;13.27;9.47;;;13.70;18.00;;;;;;5022832;28;20524;-85
2024/02/12 09:06:23;;;;;;;13.47;8.73;;;13.20;78.60;;;;;;5026799;28;20430;-85
2024/02/12 09:08:49;;;;;;;16.60;9.40;;;12.80;99.90;;;;;;5025365;28;20205;-84
2024/02/12 09:11:15;;;;;;;14.40;10.00;;;12.50;99.90;;;;;;5018960;28;20260;-85
2024/02/12 09:13:46;;;;;;;16.03;9.03;;;12.40;1.00;;;;;;5019660;28;20242;-84
2024/02/12 09:16:13;;;;;;;12.13;8.93;;;12.30;1.00;;;;;;5022415;28;20792;-85
2024/02/12 09:18:38;;;;;;;14.43;9.50;;;12.20;1.00;;;;;;5030949;28;20455;-85
2024/02/12 09:21:05;;;;;;;17.30;8.00;;;13.20;46.50;;;;;;5022590;28;20798;-84
2024/02/12 09:23:31;;;;;;;15.93;8.40;;;13.80;78.70;;;;;;5005801;28;20185;-83
2024/02/12 09:25:59;;;;;;;16.17;7.23;;;14.70;1.00;;;;;;5019215;28;20447;-84
2024/02/12 09:28:26;;;;;;;12.60;7.23;;;15.00;1.00;;;;;;5012572;28;20490;-85
2024/02/12 09:30:54;;;;;;;12.30;6.53;;;14.90;1.00;;;;;;5005238;28;21292;-84
2024/02/12 09:33:20;;;;;;;11.87;6.83;;;15.40;1.00;;;;;;5023963;28;20544;-85
2024/02/12 09:35:46;;;;;;;11.30;5.77;;;16.80;1.00;;;;;;5033438;28;20426;-85
2024/02/12 09:38:14;;;;;;;9.17;5.30;;;19.30;1.00;;;;;;5029288;28;20205;-84
2024/02/12 09:40:42;;;;;;;8.33;5.93;;;20.50;99.90;;;;;;5018038;28;20461;-86
2024/02/12 09:43:11;;;;;;;11.13;6.03;;;20.70;99.90;;;;;;5036146;28;20506;-84
2024/02/12 09:45:43;;;;;;;8.77;6.23;;;19.60;99.90;;;;;;5016897;28;21134;-83
2024/02/12 09:48:12;;;;;;;10.97;5.90;;;18.50;99.90;;;;;;5009803;28;20460;-84
2024/02/12 09:50:48;;;;;;;11.37;5.87;;;17.40;99.90;;;;;;5020025;28;20817;-82
2024/02/12 09:53:23;;;;;;;12.30;6.30;;;16.60;99.90;;;;;;5010024;28;20436;-84
2024/02/12 09:55:48;;;;;;;9.83;6.60;;;16.00;99.90;;;;;;5023198;28;20435;-84
2024/02/12 09:58:21;;;;;;;13.70;6.63;;;15.30;99.90;;;;;;5018614;28;20490;-83
2024/02/12 10:00:47;;;;;;;8.47;5.67;;;15.00;99.90;;;;;;5016518;28;20630;-83
2024/02/12 10:03:13;;;;;;;13.43;5.83;;;14.80;99.90;;;;;;5017656;28;20439;-84
2024/02/12 10:05:42;;;;;;;10.93;4.73;;;14.70;1.00;;;;;;5008815;28;20456;-82
2024/02/12 10:08:25;;;;;;;13.37;6.40;;;14.60;1.00;;;;;;5012487;28;20456;-84
2024/02/12 10:10:54;;;;;;;12.63;5.90;;;14.50;1.00;;;;;;5024858;28;21009;-82
2024/02/12 10:13:20;;;;;;;9.97;5.87;;;14.50;1.00;;;;;;5007411;28;20444;-82
2024/02/12 10:15:46;;;;;;;10.67;5.30;;;14.20;1.00;;;;;;5017069;28;20790;-83
2024/02/12 10:18:15;;;;;;;8.40;6.40;;;14.10;1.00;;;;;;5023929;28;20969;-83
2024/02/12 10:20:44;;;;;;;10.30;6.13;;;13.90;1.00;;;;;;4997321;28;21006;-83
2024/02/12 10:23:12;;;;;;;12.50;5.93;;;13.80;1.00;;;;;;5026834;28;20428;-83
2024/02/12 10:25:39;;;;;;;10.50;5.40;;;13.70;1.00;;;;;;5027746;28;20441;-81
2024/02/12 10:28:05;;;;;;;10.70;5.33;;;13.60;1.00;;;;;;5021348;28;20933;-83
2024/02/12 10:30:31;;;;;;;10.27;5.23;;;13.50;1.00;;;;;;5020999;28;20477;-83
2024/02/12 10:33:04;;;;;;;11.13;5.07;;;13.50;1.00;;;;;;5013379;28;20194;-83
2024/02/12 10:35:31;;;;;;;10.77;4.80;;;13.50;1.00;;;;;;5027984;28;20194;-84
2024/02/12 10:37:57;;;;;;;14.97;5.70;;;13.50;1.00;;;;;;5033189;28;20452;-83
2024/02/12 10:40:29;;;;;;;6.03;4.30;;;13.50;1.00;;;;;;5032781;28;20474;-84
2024/02/12 10:42:57;;;;;;;8.60;4.30;;;13.60;1.00;;;;;;5019519;28;20473;-83
2024/02/12 10:45:23;;;;;;;5.93;3.90;;;13.70;1.00;;;;;;5023995;28;20428;-83
2024/02/12 10:47:48;;;;;;;9.13;3.83;;;13.80;1.00;;;;;;5031756;28;20491;-83
2024/02/12 10:50:17;;;;;;;5.60;3.60;;;13.70;1.00;;;;;;5026169;28;20190;-84
2024/02/12 10:52:44;;;;;;;10.60;3.50;;;13.70;1.00;;;;;;5034275;28;20272;-82
2024/02/12 10:55:10;;;;;;;5.03;2.90;;;13.60;1.00;;;;;;5026963;28;21053;-82
2024/02/12 10:57:42;;;;;;;8.27;3.30;;;13.70;1.00;;;;;;5032224;28;20446;-83
2024/02/12 11:00:17;;;;;;;9.67;3.43;;;13.90;1.00;;;;;;5027045;28;20484;-83
2024/02/12 11:02:43;;;;;;;6.23;3.80;;;13.80;1.00;;;;;;5007914;28;20456;-84
2024/02/12 11:05:12;;;;;;;6.43;3.70;;;14.20;1.00;;;;;;5028579;28;20443;-83
2024/02/12 11:07:39;;;;;;;9.93;4.13;;;14.70;99.90;;;;;;5015170;28;20466;-83
2024/02/12 11:10:08;;;;;;;12.13;3.60;;;15.30;99.90;;;;;;5024898;28;20455;-83
2024/02/12 11:12:40;;;;;;;8.43;3.77;;;15.70;99.90;;;;;;5029682;28;20434;-83
2024/02/12 11:15:13;;;;;;;9.53;3.50;;;16.90;99.90;;;;;;5023533;28;20441;-83
2024/02/12 11:17:42;;;;;;;5.90;3.20;;;18.20;99.90;;;;;;5014881;28;20453;-83
2024/02/12 11:20:17;;;;;;;6.10;3.20;;;19.10;99.90;;;;;;5030536;28;20472;-84
2024/02/12 11:22:45;;;;;;;7.50;3.20;;;20.20;99.90;;;;;;5026137;28;20424;-84
2024/02/12 11:25:20;;;;;;;4.97;3.20;;;21.30;99.90;;;;;;5014874;28;20853;-82
2024/02/12 11:27:53;;;;;;;7.00;2.47;;;20.60;99.90;;;;;;5034123;28;20427;-84
2024/02/12 11:30:21;;;;;;;12.67;3.20;;;20.20;99.90;;;;;;5024949;28;20419;-83
2024/02/12 11:32:48;;;;;;;7.27;3.33;;;20.00;99.90;;;;;;5019988;28;20418;-83
2024/02/12 11:35:20;;;;;;;9.33;3.70;;;19.80;99.90;;;;;;5022831;28;20427;-84
2024/02/12 11:37:46;;;;;;;9.83;3.23;;;19.50;99.90;;;;;;5022488;28;20821;-83
2024/02/12 11:40:19;;;;;;;7.40;2.53;;;19.50;99.90;;;;;;5027620;28;20471;-83
2024/02/12 11:42:51;;;;;;;9.47;3.03;;;19.00;99.90;;;;;;5016403;28;20444;-84
2024/02/12 11:45:25;;;;;;;5.33;2.90;;;18.50;99.90;;;;;;5001844;28;20430;-84
2024/02/12 11:47:51;;;;;;;5.83;2.63;;;18.20;99.90;;;;;;5020906;28;20541;-82
2024/02/12 11:50:26;;;;;;;5.83;3.10;;;17.80;99.90;;;;;;5022823;28;20438;-83
2024/02/12 11:52:57;;;;;;;7.07;3.40;;;17.70;99.90;;;;;;5026993;28;20441;-82
2024/02/12 11:55:23;;;;;;;7.90;3.20;;;17.60;99.90;;;;;;5001793;28;20543;-83
2024/02/12 11:57:49;;;;;;;8.03;3.17;;;17.50;99.90;;;;;;5019110;28;20996;-83
2024/02/12 12:00:16;;;;;;;6.10;3.00;;;17.30;99.90;;;;;;5017988;28;20549;-83
2024/02/12 12:02:50;;;;;;;9.43;3.17;;;17.10;99.90;;;;;;5020754;28;20430;-84
2024/02/12 12:05:20;;;;;;;9.10;2.80;;;17.20;99.90;;;;;;5007513;28;20442;-84
2024/02/12 12:07:46;;;;;;;10.90;3.10;;;17.10;99.90;;;;;;5024310;28;20525;-85
2024/02/12 12:10:13;;;;;;;14.23;3.87;;;17.10;99.90;;;;;;5023337;28;21353;-83
2024/02/12 12:12:42;;;;;;;9.93;2.30;;;17.60;99.90;;;;;;5017092;28;20442;-83
2024/02/12 12:15:09;;;;;;;7.27;2.63;;;17.80;99.90;;;;;;5020245;28;20446;-85
2024/02/12 12:17:37;;;;;;;3.57;2.10;;;17.90;99.90;;;;;;5020813;28;20473;-83
2024/02/12 12:20:06;;;;;;;5.73;2.80;;;18.20;99.90;;;;;;4998574;28;20515;-83
2024/02/12 12:22:32;;;;;;;10.17;3.27;;;18.00;99.90;;;;;;5025625;28;20441;-84
2024/02/12 12:24:58;;;;;;;5.67;2.50;;;17.80;99.90;;;;;;5018777;28;20952;-83
2024/02/12 12:27:27;;;;;;;6.23;2.70;;;17.30;99.90;;;;;;5017139;28;20434;-82
2024/02/12 12:29:54;;;;;;;6.97;2.00;;;16.70;99.90;;;;;;5019196;28;20187;-83
2024/02/12 12:32:20;;;;;;;12.93;3.03;;;16.30;99.90;;;;;;5007260;28;20832;-82
2024/02/12 12:34:46;;;;;;;7.63;2.67;;;16.20;99.90;;;;;;5017648;28;21013;-82
2024/02/12 12:37:13;;;;;;;5.40;3.00;;;16.00;99.90;;;;;;5010148;28;20440;-82
2024/02/12 12:39:40;;;;;;;9.03;2.93;;;16.20;99.90;;;;;;5019640;28;20248;-82
2024/02/12 12:42:07;;;;;;;7.03;2.93;;;16.00;99.90;;;;;;5005535;28;20440;-82
2024/02/12 12:44:34;;;;;;;14.43;3.30;;;15.70;99.90;;;;;;5021280;28;20987;-82
2024/02/12 12:47:00;;;;;;;10.13;3.50;;;15.30;99.90;;;;;;5016813;28;20782;-82
2024/02/12 12:49:26;;;;;;;6.33;2.40;;;14.90;99.90;;;;;;5017120;28;20464;-83
2024/02/12 12:51:54;;;;;;;6.10;3.10;;;14.60;99.90;;;;;;5018794;28;20436;-84
2024/02/12 12:54:21;;;;;;;7.47;2.90;;;14.60;99.90;;;;;;5021099;28;20207;-83
2024/02/12 12:56:48;;;;;;;7.47;2.60;;;14.40;99.90;;;;;;5016212;28;20469;-83
2024/02/12 12:59:14;;;;;;;5.60;2.10;;;14.30;99.90;;;;;;5002014;28;20477;-83
2024/02/12 13:01:39;;;;;;;6.23;2.50;;;14.40;99.90;;;;;;5019639;28;20876;-83
2024/02/12 13:04:05;;;;;;;10.13;2.77;;;14.40;99.90;;;;;;5017279;28;20485;-83